Keatchie, Louisiana
Current Conditions -  °F | °C
As of 11:56 AM on Wednesday 26 Nov 2014 (Local Time) from KSHV Reporting Station
Few Clouds Few Clouds  
Wind Chill: 65°   Ceiling: Unl
Heat Index: 65°   Visibility: 10mi
Dew Point: 31°   Wind: 17mph
Humidity: 28%   Direction: 280°W
Pressure: 30.1"   Gusts: 25mph
Location:  32.19°N, 93.91°W
Report Text: KSHV 261756Z 28015G22KT 10SM FEW280 18/M01 A3010 RMK AO2 SLP190 T01831006 10183 20061 58005
Loading
Personal Weather Stations






























Interactive Weather Map New forecast layout! Learn more

10-Day Weather Forecast

Advertisements
Track Severe Weather on mobile